Aeroporto :
LOGIN :

Iscrizione | Disclaimer

   EN    FR    IT 

 










Sommario :    VFR   VFR Marginale   IFR   IFR Intensivo   IFR Molto Intensivo
Visibilità : 
Base nubi : 
>= 8 km
>= 3000ft
5 / 8 km
1000 / 3000 ft
1500m / 5 km
500 / 1000 ft
800 / 1500m
200 / 500 ft
< 800m
< 200 ft
Simboli :   Temporali  Nebbia  Neve Forte  Precipitazioni Forti  Vento > 20 kt
SIGMETs :   Varie  Temporali  Ghiacco  Turbolenza  Onda orograficha  Ceneri Vulcaniche






- Altitudine del aeroporto : 26 ft
- Codice IATA : BIA


LFKB - Bastia

ULTIMO METAR :
  • 200130Z AUTO 26003KT 9999 BKN070 OVC110 12/10 Q1012

METARs OBSOLETI :
  • 200100Z AUTO 23006KT 9999 FEW034 SCT060 OVC070 12/10 Q1012 TEMPO 4000 RA BKN020 FEW035TCU BKN040
  • 200030Z AUTO 22003KT 9999 FEW035 SCT046 BKN060 11/10 Q1012 TEMPO 4000 RA BKN020 FEW035TCU BKN040
  • 200000Z AUTO VRB01KT 9999 FEW038/// BKN068/// BKN082/// ///TCU 12/10 Q1012 TEMPO 4000 RA
  • 192330Z AUTO VRB03KT 9999 FEW037/// BKN066/// OVC078/// ///TCU 12/10 Q1012 TEMPO 4000 RA
  • 192300Z AUTO 23002KT 9999 -RA FEW064/// OVC076/// ///TCU 12/10 Q1012 TEMPO 4000 RA

TAF TAF LFKB
Valido dal 19 a 21 ore il 20 a 21 ore UTC


192000Z 1921/2021 23006KT 9999 SCT035 BKN060 TX17/2012Z TN09/2005Z
TEMPO 1921/2004 4000 RA BKN020 FEW035TCU BKN040
BECMG 2009/2011 32008KT
ATIS : +33 4 95 59 19 40



MetMap, La meteo Aeronautica in un colpo d'occhio ! - Copyright ORBIFLY Dicembre 2007 - Disclaimer

ORBIFLY MET'MAP TEAM :

Programmazione e sviluppo : Alexandra Zaïnal
Concezione e sviluppo : Baudouin d'Aumeries
Co-Programmazione e sviluppo : Marc-Olivier Méhu
Supporto tecnico e logistico : Manuel Goepfert
Aiuto per la traduzione : Arnaldo La Scala

Contatto : metmap@orbifly.com




FONTI E CREDITI :

   NOAA